Time;durP1;ratioP1;P1;durP2;ratioP2;P2;SDS_P1;SDS_P2;PMS_P1;PMS_P2;Temp;Humidity;BMP_temperature;BMP_pressure;BME280_temperature;BME280_humidity;BME280_pressure;Samples;Min_cycle;Max_cycle;Signal;HPM_P1;HPM_P2
2022/03/07 00:00:19;;;;;;;3.00;2.40;;;16.20;32.70;;;;;;5054188;28;20010;-38
2022/03/07 00:02:45;;;;;;;4.18;2.67;;;16.30;32.50;;;;;;5054573;28;20062;-38
2022/03/07 00:05:11;;;;;;;2.78;2.40;;;16.30;32.10;;;;;;5054332;28;20096;-38
2022/03/07 00:07:38;;;;;;;2.47;2.17;;;16.60;31.80;;;;;;5053955;28;20018;-38
2022/03/07 00:10:05;;;;;;;2.88;2.35;;;16.60;31.70;;;;;;5054052;28;20009;-38
2022/03/07 00:12:30;;;;;;;2.90;2.40;;;16.70;31.50;;;;;;5054413;28;20047;-39
2022/03/07 00:14:57;;;;;;;3.60;2.42;;;16.80;31.50;;;;;;5054702;28;20024;-38
2022/03/07 00:17:23;;;;;;;3.33;2.50;;;16.90;31.30;;;;;;5054467;28;20028;-38
2022/03/07 00:19:50;;;;;;;2.78;2.20;;;17.00;31.10;;;;;;5054759;28;20009;-38
2022/03/07 00:22:16;;;;;;;3.00;2.20;;;17.10;31.00;;;;;;5054264;28;20450;-38
2022/03/07 00:24:42;;;;;;;3.13;2.40;;;17.20;30.70;;;;;;5053226;28;20029;-38
2022/03/07 00:27:08;;;;;;;2.58;2.17;;;17.30;30.50;;;;;;5053180;28;20063;-40
2022/03/07 00:29:33;;;;;;;3.28;2.38;;;17.50;30.40;;;;;;5052571;28;20025;-39
2022/03/07 00:32:00;;;;;;;2.85;2.30;;;17.50;30.30;;;;;;5053491;28;20029;-40
2022/03/07 00:34:26;;;;;;;2.70;2.22;;;17.60;30.10;;;;;;5053629;28;20021;-39
2022/03/07 00:36:52;;;;;;;3.38;2.33;;;17.70;30.00;;;;;;5053740;28;20031;-41
2022/03/07 00:39:19;;;;;;;3.88;2.67;;;17.80;30.00;;;;;;5054446;28;20009;-39
2022/03/07 00:41:45;;;;;;;3.00;2.50;;;17.90;30.00;;;;;;5052601;28;20501;-41
2022/03/07 00:44:11;;;;;;;2.25;2.05;;;17.90;29.90;;;;;;5053675;28;20518;-40
2022/03/07 00:46:37;;;;;;;2.97;2.05;;;17.90;29.80;;;;;;5053230;28;20021;-38
2022/03/07 00:49:03;;;;;;;2.50;2.10;;;18.00;29.80;;;;;;5053695;28;20036;-39
2022/03/07 00:51:29;;;;;;;3.08;2.40;;;18.00;29.70;;;;;;5053175;28;20029;-40
2022/03/07 00:53:56;;;;;;;3.25;2.60;;;18.20;29.60;;;;;;5053227;28;20009;-39
2022/03/07 00:56:23;;;;;;;3.13;2.50;;;18.10;29.50;;;;;;5053562;28;20056;-39
2022/03/07 00:58:49;;;;;;;4.18;2.30;;;18.20;29.50;;;;;;5053795;28;20052;-41
2022/03/07 01:01:16;;;;;;;2.88;2.25;;;18.20;29.50;;;;;;5055369;28;20085;-42
2022/03/07 01:03:43;;;;;;;4.80;2.20;;;18.30;29.50;;;;;;5057214;28;20013;-44
2022/03/07 01:06:09;;;;;;;2.75;2.33;;;18.30;29.50;;;;;;5056670;28;20013;-40
2022/03/07 01:08:35;;;;;;;3.13;2.40;;;18.30;29.40;;;;;;5056377;28;20078;-42
2022/03/07 01:11:01;;;;;;;3.05;2.28;;;18.40;29.40;;;;;;5055581;28;20385;-40
2022/03/07 01:13:27;;;;;;;2.70;2.13;;;18.40;29.40;;;;;;5057585;28;20047;-42
2022/03/07 01:15:53;;;;;;;2.78;2.20;;;18.40;29.30;;;;;;5058365;28;20021;-44
2022/03/07 01:18:18;;;;;;;3.65;1.90;;;18.50;29.30;;;;;;5058792;28;20013;-44
2022/03/07 01:20:44;;;;;;;2.97;2.33;;;18.50;29.30;;;;;;5058981;28;20032;-44
2022/03/07 01:23:11;;;;;;;2.58;2.08;;;18.50;29.30;;;;;;5058598;28;20021;-42
2022/03/07 01:25:38;;;;;;;2.78;2.00;;;18.50;29.20;;;;;;5058225;28;20017;-42
2022/03/07 01:28:04;;;;;;;2.50;2.10;;;18.50;29.20;;;;;;5057016;28;20021;-45
2022/03/07 01:30:30;;;;;;;2.90;1.90;;;18.50;29.20;;;;;;5056039;28;20025;-37
2022/03/07 01:32:57;;;;;;;2.20;1.90;;;18.60;29.20;;;;;;5056185;28;20467;-37
2022/03/07 01:35:24;;;;;;;3.00;2.25;;;18.60;29.10;;;;;;5056892;28;20029;-38
2022/03/07 01:37:50;;;;;;;2.88;2.10;;;18.60;29.10;;;;;;5056877;28;20014;-37
2022/03/07 01:40:16;;;;;;;2.83;2.05;;;18.60;29.10;;;;;;5057075;28;20166;-37
2022/03/07 01:42:42;;;;;;;2.72;2.00;;;18.70;29.10;;;;;;5056196;28;20037;-37
2022/03/07 01:45:09;;;;;;;2.53;1.80;;;18.60;29.10;;;;;;5056260;28;20498;-38
2022/03/07 01:47:35;;;;;;;3.05;2.00;;;18.70;29.10;;;;;;5055786;28;20013;-38
2022/03/07 01:50:02;;;;;;;3.30;2.30;;;18.70;29.10;;;;;;5056439;28;20032;-37
2022/03/07 01:52:28;;;;;;;2.50;2.03;;;18.70;29.10;;;;;;5055792;28;20029;-37
2022/03/07 01:54:54;;;;;;;2.50;2.00;;;18.70;29.00;;;;;;5054867;28;20100;-37
2022/03/07 01:57:20;;;;;;;2.63;1.83;;;18.70;29.00;;;;;;5054847;28;20020;-38
2022/03/07 01:59:46;;;;;;;2.75;1.92;;;18.80;29.00;;;;;;5059463;28;20017;-37
2022/03/07 02:02:13;;;;;;;2.53;1.88;;;18.70;28.90;;;;;;5059140;28;20032;-43
2022/03/07 02:04:39;;;;;;;2.67;1.90;;;18.80;28.90;;;;;;5058522;28;20021;-38
2022/03/07 02:07:06;;;;;;;2.92;1.90;;;18.80;28.90;;;;;;5059486;28;20066;-38
2022/03/07 02:09:31;;;;;;;2.58;1.90;;;18.80;28.90;;;;;;5059342;28;20052;-39
2022/03/07 02:11:57;;;;;;;2.40;1.92;;;18.80;28.90;;;;;;5059790;28;20467;-38
2022/03/07 02:14:24;;;;;;;3.40;1.92;;;18.90;28.90;;;;;;5059302;28;20017;-38
2022/03/07 02:16:50;;;;;;;2.35;1.77;;;18.90;28.90;;;;;;5058706;28;20024;-40
2022/03/07 02:19:16;;;;;;;3.05;2.00;;;18.90;28.90;;;;;;5058035;28;20379;-39
2022/03/07 02:21:44;;;;;;;2.30;1.85;;;18.90;28.90;;;;;;5057790;28;20056;-37
2022/03/07 02:24:10;;;;;;;2.15;1.80;;;18.90;28.80;;;;;;5058181;28;20017;-37
2022/03/07 02:26:35;;;;;;;2.13;1.70;;;18.90;28.80;;;;;;5058563;28;20005;-45
2022/03/07 02:29:01;;;;;;;3.90;2.20;;;18.90;28.80;;;;;;5060435;28;20060;-38
2022/03/07 02:31:29;;;;;;;2.65;1.98;;;19.00;28.80;;;;;;5058517;28;20029;-40
2022/03/07 02:33:55;;;;;;;1.83;1.63;;;19.00;28.80;;;;;;5059694;28;20024;-38
2022/03/07 02:36:20;;;;;;;2.33;1.83;;;19.00;28.80;;;;;;5059666;28;20029;-38
2022/03/07 02:38:47;;;;;;;2.00;1.60;;;19.00;28.70;;;;;;5059689;28;20100;-38
2022/03/07 02:41:12;;;;;;;3.63;2.00;;;19.10;28.70;;;;;;5058542;28;20049;-38
2022/03/07 02:43:39;;;;;;;2.17;1.90;;;19.10;28.70;;;;;;5058843;28;20053;-39
2022/03/07 02:46:04;;;;;;;2.45;1.80;;;19.10;28.70;;;;;;5059377;28;20028;-37
2022/03/07 02:48:30;;;;;;;2.60;1.80;;;19.10;28.70;;;;;;5057999;28;20021;-37
2022/03/07 02:50:58;;;;;;;2.40;2.00;;;19.10;28.70;;;;;;5057699;28;20475;-38
2022/03/07 02:53:24;;;;;;;2.65;1.88;;;19.10;28.70;;;;;;5058195;28;20067;-41
2022/03/07 02:55:51;;;;;;;2.42;1.80;;;19.10;28.70;;;;;;5059026;28;20032;-38
2022/03/07 02:58:18;;;;;;;2.28;1.80;;;19.10;28.70;;;;;;5057675;28;20013;-39
2022/03/07 03:00:44;;;;;;;1.95;1.65;;;19.10;28.70;;;;;;5056897;28;20047;-38
2022/03/07 03:03:10;;;;;;;2.25;1.75;;;19.10;28.70;;;;;;5057465;28;20021;-37
2022/03/07 03:05:36;;;;;;;2.08;1.80;;;19.20;28.70;;;;;;5057871;28;20042;-38
2022/03/07 03:08:02;;;;;;;2.05;1.65;;;19.10;28.60;;;;;;5057594;28;20110;-40
2022/03/07 03:10:28;;;;;;;2.45;1.90;;;19.20;28.60;;;;;;5055974;28;20028;-39
2022/03/07 03:12:56;;;;;;;2.67;1.80;;;19.20;28.70;;;;;;5054589;28;20021;-37
2022/03/07 03:15:21;;;;;;;2.15;1.60;;;19.20;28.70;;;;;;5055368;28;20554;-38
2022/03/07 03:17:48;;;;;;;1.60;1.50;;;19.20;28.60;;;;;;5054205;28;20018;-36
2022/03/07 03:20:15;;;;;;;1.85;1.60;;;19.20;28.70;;;;;;5054961;28;20017;-37
2022/03/07 03:22:42;;;;;;;2.63;1.70;;;19.20;28.70;;;;;;5055051;28;20463;-39
2022/03/07 03:25:09;;;;;;;2.08;1.75;;;19.20;28.70;;;;;;5055299;28;20017;-37
2022/03/07 03:27:35;;;;;;;2.17;1.75;;;19.20;28.70;;;;;;5055217;28;20010;-36
2022/03/07 03:30:02;;;;;;;1.90;1.60;;;19.20;28.60;;;;;;5055549;28;20013;-37
2022/03/07 03:32:30;;;;;;;2.35;1.60;;;19.20;28.60;;;;;;5055624;28;20104;-37
2022/03/07 03:34:55;;;;;;;2.70;1.63;;;19.20;28.60;;;;;;5055916;28;20040;-36
2022/03/07 03:37:22;;;;;;;2.92;1.83;;;19.30;28.60;;;;;;5055272;28;20033;-37
2022/03/07 03:39:49;;;;;;;2.28;1.83;;;19.20;28.60;;;;;;5054490;28;20041;-38
2022/03/07 03:42:15;;;;;;;2.22;1.70;;;19.20;28.60;;;;;;5055436;28;20017;-37
2022/03/07 03:44:42;;;;;;;2.10;1.80;;;19.30;28.60;;;;;;5055097;28;20487;-37
2022/03/07 03:47:08;;;;;;;2.05;1.48;;;19.20;28.60;;;;;;5055739;28;20021;-37
2022/03/07 03:49:35;;;;;;;2.38;1.58;;;19.30;28.60;;;;;;5054961;28;20479;-37
2022/03/07 03:52:02;;;;;;;2.15;1.73;;;19.30;28.60;;;;;;5054686;28;20013;-37
2022/03/07 03:54:28;;;;;;;2.17;1.60;;;19.30;28.70;;;;;;5054612;28;20013;-41
2022/03/07 03:56:57;;;;;;;2.67;1.70;;;19.30;28.60;;;;;;5054991;28;20009;-37
2022/03/07 03:59:23;;;;;;;2.08;1.70;;;19.30;28.60;;;;;;5054965;28;20545;-36
2022/03/07 04:01:49;;;;;;;2.30;1.80;;;19.30;28.60;;;;;;5055023;28;20023;-36
2022/03/07 04:04:16;;;;;;;1.90;1.65;;;19.30;29.00;;;;;;5055366;28;20017;-36
2022/03/07 04:06:42;;;;;;;2.05;1.60;;;19.30;28.60;;;;;;5055043;28;20021;-37
2022/03/07 04:09:15;;;;;;;2.30;1.63;;;19.30;28.60;;;;;;5054564;28;20472;-37
2022/03/07 04:11:41;;;;;;;2.25;1.70;;;19.30;28.60;;;;;;5054675;28;20024;-37
2022/03/07 04:14:08;;;;;;;2.10;1.60;;;19.40;28.60;;;;;;5054661;28;20498;-38
2022/03/07 04:16:38;;;;;;;1.98;1.77;;;19.40;28.50;;;;;;5054393;28;20013;-38
2022/03/07 04:19:07;;;;;;;2.22;1.50;;;19.40;28.40;;;;;;5052978;28;20017;-38
2022/03/07 04:21:34;;;;;;;1.83;1.50;;;19.60;28.40;;;;;;5052824;28;20036;-38
2022/03/07 04:24:00;;;;;;;1.92;1.60;;;19.60;28.30;;;;;;5053106;28;20025;-38
2022/03/07 04:26:26;;;;;;;2.38;1.45;;;19.70;28.30;;;;;;5054349;28;20021;-38
2022/03/07 04:28:53;;;;;;;2.45;1.60;;;19.70;28.20;;;;;;5054518;28;20040;-40
2022/03/07 04:31:18;;;;;;;2.53;1.60;;;19.80;28.10;;;;;;5054416;28;20025;-38
2022/03/07 04:33:45;;;;;;;2.30;1.63;;;19.80;28.10;;;;;;5054303;28;20092;-40
2022/03/07 04:36:14;;;;;;;2.33;1.77;;;20.00;28.00;;;;;;5054438;28;20025;-38
2022/03/07 04:38:40;;;;;;;2.00;1.60;;;20.00;28.00;;;;;;5036388;28;20083;-38
2022/03/07 04:41:06;;;;;;;2.13;1.77;;;20.10;27.90;;;;;;5054236;28;20028;-39
2022/03/07 04:43:32;;;;;;;2.10;1.60;;;20.10;27.80;;;;;;5036117;28;20527;-38
2022/03/07 04:45:58;;;;;;;1.75;1.55;;;20.20;27.80;;;;;;5053952;28;20045;-38
2022/03/07 04:48:24;;;;;;;1.73;1.50;;;20.20;27.70;;;;;;5053584;28;20016;-38
2022/03/07 04:50:50;;;;;;;1.65;1.50;;;20.30;27.60;;;;;;5053331;28;20483;-38
2022/03/07 04:53:16;;;;;;;1.85;1.20;;;20.40;27.60;;;;;;5053907;28;20017;-40
2022/03/07 04:55:43;;;;;;;1.88;1.60;;;20.40;27.50;;;;;;5054189;28;20032;-41
2022/03/07 04:58:09;;;;;;;1.83;1.40;;;20.50;27.40;;;;;;5055457;28;20014;-41
2022/03/07 05:00:35;;;;;;;2.15;1.60;;;20.60;27.30;;;;;;5056703;28;20028;-43
2022/03/07 05:03:01;;;;;;;1.45;1.20;;;20.70;27.30;;;;;;5056950;28;20044;-41
2022/03/07 05:05:28;;;;;;;1.67;1.48;;;20.70;27.20;;;;;;5057647;28;20063;-42
2022/03/07 05:07:53;;;;;;;1.95;1.65;;;20.80;27.20;;;;;;5056618;28;20021;-42
2022/03/07 05:10:19;;;;;;;2.13;1.50;;;20.80;27.20;;;;;;5056520;28;20044;-40
2022/03/07 05:12:47;;;;;;;2.47;1.65;;;20.90;27.10;;;;;;5055708;28;20031;-38
2022/03/07 05:15:14;;;;;;;2.17;1.50;;;21.00;27.00;;;;;;5055488;28;20048;-39
2022/03/07 05:17:44;;;;;;;2.03;1.50;;;21.00;26.90;;;;;;5055915;28;20017;-38
2022/03/07 05:20:11;;;;;;;1.50;1.38;;;21.10;26.90;;;;;;5055743;28;20025;-39
2022/03/07 05:22:37;;;;;;;1.98;1.58;;;21.20;26.80;;;;;;5055260;28;20017;-37
2022/03/07 05:25:08;;;;;;;2.05;1.45;;;21.20;26.70;;;;;;5054399;28;20017;-39
2022/03/07 05:27:34;;;;;;;1.90;1.60;;;21.30;26.70;;;;;;5054264;28;20028;-37
2022/03/07 05:30:00;;;;;;;1.88;1.40;;;21.30;26.60;;;;;;5053336;28;20098;-38
2022/03/07 05:32:27;;;;;;;1.45;1.33;;;21.40;26.60;;;;;;5053525;28;20025;-38
2022/03/07 05:34:54;;;;;;;2.28;1.63;;;21.40;26.50;;;;;;5057063;28;20017;-38
2022/03/07 05:37:21;;;;;;;2.08;1.50;;;21.50;26.50;;;;;;5057244;28;20545;-39
2022/03/07 05:39:47;;;;;;;1.85;1.60;;;21.60;26.40;;;;;;5058024;28;20088;-39
2022/03/07 05:42:13;;;;;;;1.80;1.63;;;21.60;26.40;;;;;;5058365;28;20432;-40
2022/03/07 05:44:39;;;;;;;2.03;1.80;;;21.60;26.30;;;;;;5059145;28;20134;-39
2022/03/07 05:47:06;;;;;;;1.98;1.45;;;21.70;26.30;;;;;;5057213;28;20013;-39
2022/03/07 05:49:32;;;;;;;1.58;1.20;;;21.70;26.20;;;;;;5057371;28;20032;-39
2022/03/07 05:51:58;;;;;;;2.15;1.40;;;21.80;26.20;;;;;;5058586;28;20082;-43
2022/03/07 05:54:23;;;;;;;1.85;1.67;;;21.90;26.20;;;;;;5058091;28;20494;-39
2022/03/07 05:56:50;;;;;;;2.97;1.90;;;21.90;26.10;;;;;;5058101;28;20532;-39
2022/03/07 05:59:16;;;;;;;2.33;1.70;;;21.90;26.00;;;;;;5056592;28;20104;-40
2022/03/07 06:01:42;;;;;;;1.95;1.60;;;21.90;26.10;;;;;;5056501;28;20509;-39
2022/03/07 06:04:08;;;;;;;2.67;1.75;;;21.90;26.10;;;;;;5057888;28;20025;-41
2022/03/07 06:06:34;;;;;;;2.63;1.42;;;21.90;26.10;;;;;;5058086;28;20017;-39
2022/03/07 06:09:00;;;;;;;2.65;1.92;;;21.90;26.00;;;;;;5057703;28;20021;-39
2022/03/07 06:11:26;;;;;;;2.05;1.85;;;21.90;26.00;;;;;;5057584;28;20503;-40
2022/03/07 06:13:52;;;;;;;2.55;1.92;;;22.00;26.00;;;;;;5056447;28;20448;-39
2022/03/07 06:16:18;;;;;;;2.17;1.65;;;22.00;25.90;;;;;;5054845;28;20021;-39
2022/03/07 06:18:43;;;;;;;2.25;1.52;;;22.00;25.90;;;;;;5056102;28;20067;-39
2022/03/07 06:21:09;;;;;;;2.47;1.60;;;22.00;25.90;;;;;;5054844;28;20021;-39
2022/03/07 06:23:36;;;;;;;1.92;1.60;;;22.10;25.80;;;;;;5056636;28;20497;-38
2022/03/07 06:26:05;;;;;;;1.70;1.58;;;22.20;25.80;;;;;;5056512;28;20025;-39
2022/03/07 06:28:31;;;;;;;2.33;1.70;;;22.20;25.70;;;;;;5057443;28;20009;-39
2022/03/07 06:30:59;;;;;;;2.30;1.83;;;22.30;25.70;;;;;;5057939;28;20025;-39
2022/03/07 06:33:25;;;;;;;2.03;1.50;;;22.20;25.70;;;;;;5057344;28;20021;-40
2022/03/07 06:35:51;;;;;;;1.83;1.45;;;22.30;25.70;;;;;;5058573;28;20020;-40
2022/03/07 06:38:19;;;;;;;2.75;1.75;;;22.30;25.70;;;;;;5058982;28;20478;-39
2022/03/07 06:40:45;;;;;;;1.95;1.50;;;22.30;25.70;;;;;;5057260;28;20017;-39
2022/03/07 06:43:11;;;;;;;1.90;1.58;;;22.30;25.70;;;;;;5059073;28;20411;-39
2022/03/07 06:45:36;;;;;;;1.83;1.60;;;22.30;25.60;;;;;;5059405;28;20043;-40
2022/03/07 06:48:03;;;;;;;1.88;1.60;;;22.50;25.50;;;;;;5060578;28;20409;-38
2022/03/07 06:50:29;;;;;;;1.77;1.60;;;22.80;25.20;;;;;;5060369;28;20104;-41
2022/03/07 06:52:55;;;;;;;2.60;1.60;;;22.90;25.00;;;;;;5059338;28;20033;-42
2022/03/07 06:55:20;;;;;;;1.83;1.50;;;23.40;24.70;;;;;;5043407;28;20018;-38
2022/03/07 06:57:46;;;;;;;2.15;1.75;;;23.90;24.20;;;;;;5057631;28;20487;-38
2022/03/07 07:00:13;;;;;;;1.73;1.50;;;24.50;23.70;;;;;;5059386;28;20320;-38
2022/03/07 07:02:40;;;;;;;1.70;1.50;;;24.80;23.40;;;;;;5058683;28;20044;-38
2022/03/07 07:05:07;;;;;;;2.22;1.50;;;24.80;23.20;;;;;;5055468;28;20056;-37
2022/03/07 07:07:34;;;;;;;1.92;1.73;;;24.60;23.40;;;;;;5056996;28;20024;-37
2022/03/07 07:10:00;;;;;;;2.08;1.70;;;24.40;23.60;;;;;;5038579;28;20471;-39
2022/03/07 07:12:27;;;;;;;2.58;1.75;;;24.30;23.70;;;;;;5055501;28;20110;-39
2022/03/07 07:14:52;;;;;;;2.42;1.67;;;24.20;23.70;;;;;;5038159;28;20013;-37
2022/03/07 07:17:19;;;;;;;1.90;1.60;;;24.10;23.80;;;;;;5054374;28;20040;-37
2022/03/07 07:19:45;;;;;;;2.22;1.70;;;24.10;23.90;;;;;;5053942;28;20420;-40
2022/03/07 07:22:11;;;;;;;2.15;1.60;;;24.10;23.90;;;;;;5019373;28;20127;-40
2022/03/07 07:24:39;;;;;;;9.70;2.50;;;23.90;24.00;;;;;;5055485;28;20070;-38
2022/03/07 07:27:04;;;;;;;8.02;3.08;;;23.10;25.30;;;;;;5055669;28;20025;-38
2022/03/07 07:29:31;;;;;;;11.13;4.15;;;22.50;24.50;;;;;;5054569;28;20153;-38
2022/03/07 07:31:56;;;;;;;15.15;4.00;;;21.20;26.60;;;;;;5053131;28;20132;-37
2022/03/07 07:34:22;;;;;;;8.07;4.38;;;20.60;26.20;;;;;;5053988;28;20032;-41
2022/03/07 07:36:48;;;;;;;11.45;3.97;;;20.10;26.90;;;;;;5035885;28;20074;-38
2022/03/07 07:39:16;;;;;;;6.95;4.13;;;20.40;27.20;;;;;;5055376;28;20017;-37
2022/03/07 07:41:41;;;;;;;10.63;4.07;;;19.80;26.90;;;;;;5054649;28;20096;-39
2022/03/07 07:44:07;;;;;;;9.80;4.45;;;20.00;27.00;;;;;;5054663;28;20500;-41
2022/03/07 07:46:33;;;;;;;11.43;4.18;;;20.70;26.40;;;;;;5053891;28;20017;-38
2022/03/07 07:48:59;;;;;;;8.57;3.55;;;21.30;25.80;;;;;;5053715;28;20038;-41
2022/03/07 07:51:25;;;;;;;7.35;3.42;;;21.80;25.30;;;;;;5055643;28;20608;-39
2022/03/07 07:53:50;;;;;;;7.90;4.05;;;22.00;24.60;;;;;;5054967;28;20048;-39
2022/03/07 07:56:16;;;;;;;8.88;4.10;;;21.40;24.60;;;;;;5054550;28;20017;-37
2022/03/07 07:58:42;;;;;;;7.07;3.70;;;21.10;24.70;;;;;;5054556;28;20013;-38
2022/03/07 08:01:08;;;;;;;6.80;4.10;;;21.60;24.50;;;;;;5054667;28;20017;-39
2022/03/07 08:03:34;;;;;;;8.13;3.50;;;22.00;24.30;;;;;;5055392;28;20052;-37
2022/03/07 08:05:59;;;;;;;5.85;3.75;;;22.20;24.00;;;;;;5054605;28;20108;-37
2022/03/07 08:08:25;;;;;;;8.90;3.90;;;22.30;23.70;;;;;;5052631;28;20384;-41
2022/03/07 08:10:52;;;;;;;12.35;4.07;;;22.50;23.50;;;;;;5053966;28;20036;-38
2022/03/07 08:13:17;;;;;;;12.10;4.05;;;22.60;23.20;;;;;;5051756;28;20009;-40
2022/03/07 08:15:43;;;;;;;10.70;3.50;;;22.70;23.00;;;;;;5050873;28;20511;-37
2022/03/07 08:18:11;;;;;;;20.17;5.80;;;22.80;22.70;;;;;;5034214;28;20109;-37
2022/03/07 08:20:36;;;;;;;13.90;5.35;;;20.90;24.50;;;;;;5053234;28;20017;-38
2022/03/07 08:23:02;;;;;;;10.95;5.45;;;18.90;26.50;;;;;;5053856;28;20017;-40
2022/03/07 08:25:28;;;;;;;18.30;6.13;;;18.30;26.70;;;;;;5053839;28;20027;-38
2022/03/07 08:27:54;;;;;;;11.73;5.50;;;18.10;26.10;;;;;;5034626;28;20447;-39
2022/03/07 08:30:21;;;;;;;11.30;5.40;;;17.80;25.70;;;;;;5053130;28;20105;-39
2022/03/07 08:32:47;;;;;;;10.43;5.22;;;17.60;25.50;;;;;;5053171;28;20021;-36
2022/03/07 08:35:13;;;;;;;12.55;5.38;;;17.50;25.70;;;;;;5053579;28;20318;-36
2022/03/07 08:37:39;;;;;;;9.25;5.68;;;17.20;26.10;;;;;;5052875;28;20017;-37
2022/03/07 08:40:07;;;;;;;7.97;5.38;;;16.90;25.90;;;;;;5053974;28;20009;-38
2022/03/07 08:42:34;;;;;;;11.35;5.63;;;16.60;26.00;;;;;;5053576;28;20479;-38
2022/03/07 08:44:59;;;;;;;9.77;5.55;;;16.40;26.50;;;;;;5034512;28;20049;-35
2022/03/07 08:47:25;;;;;;;10.15;4.85;;;16.30;26.60;;;;;;5052511;28;20028;-44
2022/03/07 08:49:56;;;;;;;10.00;5.43;;;16.50;27.30;;;;;;5051376;28;20521;-34
2022/03/07 08:52:21;;;;;;;;;;;16.70;26.00;;;;;;5051417;28;20432;-34
2022/03/07 08:54:47;;;;;;;9.75;4.70;;;16.50;26.20;;;;;;5052382;28;19912;-34
2022/03/07 08:57:13;;;;;;;6.43;4.53;;;16.60;26.30;;;;;;5052543;28;20013;-33
2022/03/07 08:59:39;;;;;;;7.53;4.47;;;16.60;26.00;;;;;;5052525;28;20013;-34
2022/03/07 09:02:05;;;;;;;9.27;4.63;;;16.70;25.00;;;;;;5052135;28;20100;-36
2022/03/07 09:04:31;;;;;;;10.57;4.88;;;16.20;25.60;;;;;;5050175;28;20016;-35
2022/03/07 09:06:57;;;;;;;7.00;4.70;;;16.30;25.10;;;;;;5049958;28;20021;-34
2022/03/07 09:09:22;;;;;;;9.13;4.70;;;16.80;24.10;;;;;;5050519;28;20009;-34
2022/03/07 09:11:49;;;;;;;4.65;3.28;;;16.30;23.80;;;;;;5051923;28;20483;-34
2022/03/07 09:14:15;;;;;;;6.28;3.65;;;16.90;24.40;;;;;;5035016;28;20013;-37
2022/03/07 09:16:42;;;;;;;7.68;3.85;;;17.50;23.20;;;;;;5051871;28;20314;-36
2022/03/07 09:19:07;;;;;;;15.80;4.47;;;18.10;22.70;;;;;;5051057;28;20005;-36
2022/03/07 09:21:33;;;;;;;11.43;3.60;;;17.50;25.60;;;;;;5052839;28;20047;-35
2022/03/07 09:23:59;;;;;;;22.15;4.32;;;17.00;26.10;;;;;;5052187;28;20106;-36
2022/03/07 09:26:24;;;;;;;12.10;4.18;;;17.10;26.60;;;;;;5034463;28;20051;-34
2022/03/07 09:28:51;;;;;;;14.45;4.03;;;17.70;25.40;;;;;;5052292;28;20502;-37
2022/03/07 09:31:19;;;;;;;7.03;3.20;;;18.00;24.80;;;;;;5051380;28;20025;-35
2022/03/07 09:33:45;;;;;;;11.25;3.63;;;18.40;24.40;;;;;;5052714;28;20013;-34
2022/03/07 09:36:10;;;;;;;7.20;3.55;;;18.20;24.20;;;;;;5052810;28;20159;-34
2022/03/07 09:38:37;;;;;;;7.63;3.63;;;18.60;23.60;;;;;;5052520;28;20017;-34
2022/03/07 09:41:03;;;;;;;7.85;3.13;;;18.20;23.80;;;;;;5051255;28;20510;-34
2022/03/07 09:43:29;;;;;;;8.02;2.90;;;18.00;23.60;;;;;;5050611;28;20045;-34
2022/03/07 09:45:55;;;;;;;6.93;3.00;;;18.50;23.50;;;;;;5052757;28;20017;-35
2022/03/07 09:48:24;;;;;;;8.68;2.47;;;18.40;23.20;;;;;;5052584;28;20053;-35
2022/03/07 09:50:51;;;;;;;7.55;3.83;;;18.80;22.90;;;;;;5052726;28;20025;-37
2022/03/07 09:53:17;;;;;;;6.40;3.40;;;19.10;23.10;;;;;;5052301;28;20009;-36
2022/03/07 09:55:46;;;;;;;5.35;2.90;;;18.40;22.20;;;;;;5052164;28;20025;-36
2022/03/07 09:58:12;;;;;;;5.00;3.05;;;18.00;23.30;;;;;;5050664;28;20126;-36
2022/03/07 10:00:41;;;;;;;6.65;2.60;;;18.40;23.20;;;;;;5051767;28;20005;-36
2022/03/07 10:03:11;;;;;;;5.63;2.72;;;19.20;23.20;;;;;;5052148;28;20070;-36
2022/03/07 10:05:38;;;;;;;6.28;2.58;;;19.20;22.80;;;;;;5051019;28;20010;-36
2022/03/07 10:08:05;;;;;;;9.20;3.00;;;18.30;22.70;;;;;;5051103;28;20424;-36
2022/03/07 10:10:39;;;;;;;7.90;3.05;;;17.80;23.20;;;;;;5051074;28;20010;-41
2022/03/07 10:13:10;;;;;;;8.63;2.65;;;17.60;23.20;;;;;;5051779;28;20420;-38
2022/03/07 10:15:37;;;;;;;13.93;2.40;;;17.80;23.60;;;;;;5052626;28;20062;-36
2022/03/07 10:18:03;;;;;;;11.32;2.63;;;18.30;24.40;;;;;;5054681;28;20029;-40
2022/03/07 10:20:28;;;;;;;8.65;3.25;;;18.40;23.00;;;;;;5057907;28;20009;-37
2022/03/07 10:22:56;;;;;;;7.80;3.10;;;17.20;24.10;;;;;;5056079;28;20451;-38
2022/03/07 10:25:29;;;;;;;4.72;2.40;;;17.20;23.90;;;;;;5057299;28;20455;-37
2022/03/07 10:27:55;;;;;;;9.48;2.53;;;18.10;23.90;;;;;;5056685;28;20017;-37
2022/03/07 10:30:23;;;;;;;5.82;1.80;;;18.50;22.30;;;;;;5057761;28;20052;-37
2022/03/07 10:33:00;;;;;;;6.20;2.25;;;18.80;22.70;;;;;;5058471;28;20017;-37
2022/03/07 10:35:31;;;;;;;8.18;2.42;;;18.40;22.40;;;;;;5058889;28;20451;-41
2022/03/07 10:38:01;;;;;;;6.97;2.30;;;18.30;23.00;;;;;;5058996;28;20021;-39
2022/03/07 10:40:27;;;;;;;5.45;2.90;;;18.70;22.90;;;;;;5057166;28;20032;-38
2022/03/07 10:42:53;;;;;;;7.13;2.10;;;18.90;22.50;;;;;;5058768;28;20021;-39
2022/03/07 10:45:19;;;;;;;6.18;2.33;;;19.40;22.30;;;;;;5055552;28;20079;-39
2022/03/07 10:47:53;;;;;;;4.68;2.10;;;19.10;22.20;;;;;;5055429;28;20017;-38
2022/03/07 10:50:22;;;;;;;4.82;1.90;;;19.50;22.10;;;;;;5055893;28;20440;-36
2022/03/07 10:52:49;;;;;;;3.55;1.85;;;20.00;21.90;;;;;;5055363;28;20079;-36
2022/03/07 10:55:15;;;;;;;9.18;2.83;;;19.80;21.90;;;;;;5057592;28;20009;-36
2022/03/07 10:57:41;;;;;;;7.20;2.00;;;19.80;21.00;;;;;;5036168;28;20024;-37
2022/03/07 11:00:17;;;;;;;7.00;2.17;;;19.60;21.60;;;;;;5055865;28;20063;-37
2022/03/07 11:02:50;;;;;;;7.35;1.95;;;20.20;21.20;;;;;;5058435;28;20044;-35
2022/03/07 11:05:16;;;;;;;6.53;1.80;;;20.70;20.60;;;;;;5039172;28;20068;-35
2022/03/07 11:07:44;;;;;;;3.58;1.83;;;21.10;20.30;;;;;;5055429;28;20452;-38
2022/03/07 11:10:10;;;;;;;4.72;1.35;;;21.40;20.10;;;;;;5057281;28;20163;-37
2022/03/07 11:12:36;;;;;;;8.93;1.67;;;21.60;20.00;;;;;;5057024;28;20610;-37
2022/03/07 11:15:08;;;;;;;6.97;1.60;;;21.90;19.80;;;;;;5057245;28;20052;-35
2022/03/07 11:17:40;;;;;;;5.47;1.40;;;22.10;19.70;;;;;;5041907;28;20086;-36
2022/03/07 11:20:09;;;;;;;5.53;1.58;;;22.20;19.70;;;;;;5056620;28;20096;-38
2022/03/07 11:22:35;;;;;;;4.80;1.40;;;22.10;19.70;;;;;;5058624;28;20025;-40
2022/03/07 11:25:02;;;;;;;3.90;1.40;;;22.10;19.60;;;;;;5057594;28;20040;-38
2022/03/07 11:27:28;;;;;;;7.70;1.75;;;22.20;19.40;;;;;;5056495;28;20062;-36
2022/03/07 11:29:56;;;;;;;3.63;1.35;;;22.30;19.40;;;;;;5056421;28;20029;-38
2022/03/07 11:32:22;;;;;;;8.18;1.33;;;22.40;19.30;;;;;;5055686;28;20021;-36
2022/03/07 11:34:53;;;;;;;4.65;1.40;;;22.60;19.30;;;;;;5039217;28;20372;-37
2022/03/07 11:37:19;;;;;;;2.83;1.42;;;22.70;19.30;;;;;;5057222;28;20092;-36
2022/03/07 11:39:45;;;;;;;3.72;1.40;;;22.70;19.30;;;;;;5054568;28;20013;-39
2022/03/07 11:42:18;;;;;;;6.95;1.55;;;22.70;19.30;;;;;;5038194;28;20045;-37
2022/03/07 11:44:45;;;;;;;5.57;1.80;;;22.70;19.40;;;;;;5055171;28;20064;-38
2022/03/07 11:47:19;;;;;;;5.47;1.42;;;22.70;19.40;;;;;;5053708;28;20502;-36
2022/03/07 11:49:45;;;;;;;7.38;2.45;;;21.20;20.40;;;;;;5051033;28;20089;-39
2022/03/07 11:52:19;;;;;;;6.32;2.65;;;19.90;21.80;;;;;;5053178;28;20021;-37
2022/03/07 11:55:16;;;;;;;7.97;2.83;;;18.00;23.60;;;;;;5035519;28;20021;-37
2022/03/07 11:57:47;;;;;;;5.50;2.10;;;18.40;23.70;;;;;;5052205;28;20048;-37
2022/03/07 12:00:23;;;;;;;4.28;2.75;;;19.10;23.10;;;;;;5052321;28;20028;-37
2022/03/07 12:02:51;;;;;;;4.50;1.73;;;19.30;22.70;;;;;;5052792;28;20058;-37
2022/03/07 12:05:30;;;;;;;9.02;1.88;;;19.90;22.90;;;;;;5053306;28;20360;-37
2022/03/07 12:08:17;;;;;;;6.32;2.15;;;20.60;22.60;;;;;;5052822;28;20052;-37
2022/03/07 12:11:02;;;;;;;4.57;1.95;;;18.90;22.70;;;;;;5052631;28;20047;-36
2022/03/07 12:13:29;;;;;;;5.97;2.20;;;19.60;23.10;;;;;;5052875;28;20014;-37
2022/03/07 12:15:57;;;;;;;5.72;1.60;;;19.50;22.70;;;;;;5052108;28;20035;-42
2022/03/07 12:18:23;;;;;;;2.55;2.20;;;19.30;23.40;;;;;;5052375;28;20044;-36
2022/03/07 12:20:56;;;;;;;4.18;2.00;;;19.20;22.80;;;;;;5052411;28;20041;-46
2022/03/07 12:23:24;;;;;;;6.15;2.00;;;19.00;23.00;;;;;;5051068;28;20036;-37
2022/03/07 12:26:01;;;;;;;6.45;2.67;;;18.40;23.80;;;;;;5050979;28;20080;-37
2022/03/07 12:28:29;;;;;;;6.68;2.50;;;18.60;23.10;;;;;;5051951;28;20028;-36
2022/03/07 12:30:55;;;;;;;5.75;2.50;;;18.00;23.60;;;;;;5050270;28;20508;-37
2022/03/07 12:33:21;;;;;;;7.47;1.83;;;18.10;23.50;;;;;;5051171;28;20063;-37
2022/03/07 12:35:48;;;;;;;8.23;2.80;;;18.60;23.70;;;;;;5052025;28;20009;-38
2022/03/07 12:38:13;;;;;;;3.53;2.00;;;18.10;23.20;;;;;;5050404;28;20436;-37
2022/03/07 12:40:39;;;;;;;6.80;2.40;;;18.20;23.30;;;;;;5033757;28;20048;-38
2022/03/07 12:43:05;;;;;;;7.65;2.15;;;18.70;22.50;;;;;;5051333;28;20124;-38